Time;durP1;ratioP1;P1;durP2;ratioP2;P2;SDS_P1;SDS_P2;PMS_P1;PMS_P2;Temp;Humidity;BMP_temperature;BMP_pressure;BME280_temperature;BME280_humidity;BME280_pressure;Samples;Min_cycle;Max_cycle;Signal;HPM_P1;HPM_P2
2023/08/25 00:01:36;;;;;;;5.80;2.58;;;22.60;60.00;;;;;;5003215;28;20057;-50
2023/08/25 00:04:03;;;;;;;3.72;2.45;;;22.60;60.00;;;;;;5003297;28;20062;-55
2023/08/25 00:06:30;;;;;;;3.65;2.63;;;22.60;60.00;;;;;;5003701;28;20413;-52
2023/08/25 00:08:58;;;;;;;3.90;2.58;;;22.60;60.00;;;;;;5003060;28;20068;-46
2023/08/25 00:11:25;;;;;;;5.18;3.10;;;22.50;59.90;;;;;;5005107;28;20061;-47
2023/08/25 00:13:53;;;;;;;6.82;2.83;;;22.50;59.90;;;;;;5003302;28;20057;-55
2023/08/25 00:16:20;;;;;;;6.72;2.85;;;22.50;59.90;;;;;;5002909;28;20046;-53
2023/08/25 00:18:48;;;;;;;6.50;3.33;;;22.50;60.20;;;;;;5004575;28;20049;-51
2023/08/25 00:21:16;;;;;;;4.72;2.88;;;22.50;60.00;;;;;;5001929;28;20061;-50
2023/08/25 00:23:43;;;;;;;3.40;2.80;;;22.50;60.00;;;;;;5002130;28;20137;-47
2023/08/25 00:26:10;;;;;;;7.07;3.35;;;22.50;60.00;;;;;;5003467;28;20049;-47
2023/08/25 00:28:37;;;;;;;5.13;3.17;;;22.50;60.00;;;;;;5003147;28;20046;-47
2023/08/25 00:31:04;;;;;;;7.00;3.15;;;22.50;60.00;;;;;;5002597;28;20065;-52
2023/08/25 00:33:32;;;;;;;4.50;2.75;;;22.40;60.00;;;;;;5003767;28;20053;-49
2023/08/25 00:36:00;;;;;;;5.65;2.67;;;22.40;60.00;;;;;;5003217;28;20049;-52
2023/08/25 00:38:28;;;;;;;7.38;3.00;;;22.40;60.00;;;;;;5002845;28;20108;-46
2023/08/25 00:40:56;;;;;;;5.32;2.88;;;22.40;60.00;;;;;;5004863;28;20060;-48
2023/08/25 00:43:23;;;;;;;6.00;2.80;;;22.40;60.10;;;;;;5003924;28;20061;-49
2023/08/25 00:45:50;;;;;;;5.82;2.80;;;22.40;60.10;;;;;;5003193;28;20050;-49
2023/08/25 00:48:18;;;;;;;6.15;3.10;;;22.30;60.10;;;;;;5002053;28;20050;-46
2023/08/25 00:50:45;;;;;;;5.57;3.20;;;22.40;60.20;;;;;;5002630;28;20061;-46
2023/08/25 00:53:14;;;;;;;6.00;2.55;;;22.30;60.20;;;;;;5003481;28;20068;-51
2023/08/25 00:55:41;;;;;;;4.97;3.20;;;22.30;60.30;;;;;;5001525;28;20054;-50
2023/08/25 00:58:10;;;;;;;4.72;3.10;;;22.30;60.30;;;;;;5003102;28;20058;-48
2023/08/25 01:00:39;;;;;;;7.30;4.03;;;22.30;60.30;;;;;;5002174;28;20058;-57
2023/08/25 01:03:06;;;;;;;6.55;2.60;;;22.30;60.40;;;;;;5013988;23;20058;-51
2023/08/25 01:05:34;;;;;;;4.68;2.92;;;22.30;60.40;;;;;;4963293;28;20078;-55
2023/08/25 01:08:03;;;;;;;4.57;3.00;;;22.30;60.50;;;;;;4966662;28;20062;-56
2023/08/25 01:10:42;;;;;;;4.00;2.70;;;22.30;60.50;;;;;;4964991;28;20487;-49
2023/08/25 01:13:16;;;;;;;4.55;3.03;;;22.30;60.60;;;;;;4965114;28;20055;-49
2023/08/25 01:15:47;;;;;;;8.63;2.85;;;22.30;60.60;;;;;;4963626;28;20046;-49
2023/08/25 01:18:18;;;;;;;5.40;2.75;;;22.20;60.60;;;;;;4965552;28;20054;-49
2023/08/25 01:20:48;;;;;;;3.55;2.20;;;22.20;60.60;;;;;;4963133;28;20046;-50
2023/08/25 01:23:18;;;;;;;4.05;1.88;;;22.20;60.60;;;;;;4965276;28;20054;-54
2023/08/25 01:25:48;;;;;;;4.63;2.10;;;22.20;60.70;;;;;;4962750;28;20136;-52
2023/08/25 01:28:15;;;;;;;2.28;1.90;;;22.20;60.80;;;;;;4964777;28;20058;-52
2023/08/25 01:30:44;;;;;;;3.67;2.60;;;22.20;60.80;;;;;;4964162;28;20054;-52
2023/08/25 01:33:12;;;;;;;2.53;2.13;;;22.20;60.90;;;;;;4963687;28;20502;-52
2023/08/25 01:36:01;;;;;;;3.28;1.80;;;22.10;60.80;;;;;;4963407;28;20106;-51
2023/08/25 01:38:34;;;;;;;5.15;2.38;;;22.10;60.90;;;;;;4965087;28;20051;-51
2023/08/25 01:41:07;;;;;;;3.05;2.35;;;22.10;60.80;;;;;;4961893;28;20061;-52
2023/08/25 01:43:38;;;;;;;4.38;2.42;;;22.10;60.80;;;;;;4963903;28;20053;-51
2023/08/25 01:46:09;;;;;;;4.13;2.38;;;22.10;60.80;;;;;;4963699;28;20057;-48
2023/08/25 01:48:37;;;;;;;3.45;2.28;;;22.20;60.90;;;;;;4965135;28;20574;-51
2023/08/25 01:51:06;;;;;;;5.28;2.35;;;22.10;60.80;;;;;;4963293;28;20058;-53
2023/08/25 01:53:33;;;;;;;4.93;2.38;;;22.10;60.90;;;;;;4964532;28;20119;-57
2023/08/25 01:56:00;;;;;;;3.28;2.40;;;22.10;60.90;;;;;;4963606;28;20054;-54
2023/08/25 01:58:29;;;;;;;8.27;2.75;;;22.10;60.90;;;;;;4964230;28;20050;-51
2023/08/25 02:00:56;;;;;;;3.47;2.25;;;22.10;60.90;;;;;;4962724;28;20510;-51
2023/08/25 02:03:24;;;;;;;3.80;2.42;;;22.10;60.80;;;;;;4963516;28;20051;-55
2023/08/25 02:05:51;;;;;;;3.85;2.58;;;22.10;60.80;;;;;;4963045;28;20507;-51
2023/08/25 02:08:18;;;;;;;4.55;2.30;;;22.10;60.80;;;;;;4967622;28;20055;-53
2023/08/25 02:10:45;;;;;;;3.38;2.30;;;22.10;60.90;;;;;;4967781;28;20050;-50
2023/08/25 02:13:13;;;;;;;7.47;2.10;;;22.10;61.50;;;;;;4968709;28;20490;-51
2023/08/25 02:15:45;;;;;;;3.70;1.95;;;22.10;60.80;;;;;;4967177;28;20057;-50
2023/08/25 02:18:13;;;;;;;6.03;2.05;;;22.10;60.80;;;;;;4968450;28;20050;-57
2023/08/25 02:20:40;;;;;;;5.90;2.30;;;22.10;60.70;;;;;;4965410;28;20054;-57
2023/08/25 02:23:09;;;;;;;3.40;1.80;;;22.10;60.70;;;;;;4966062;28;20062;-57
2023/08/25 02:25:36;;;;;;;5.05;2.25;;;22.00;60.70;;;;;;4968189;28;20059;-57
2023/08/25 02:28:04;;;;;;;5.72;2.25;;;22.00;60.70;;;;;;4967054;28;20414;-58
2023/08/25 02:30:31;;;;;;;3.97;1.95;;;22.00;60.80;;;;;;4966612;28;20054;-58
2023/08/25 02:33:00;;;;;;;4.30;1.80;;;22.00;60.90;;;;;;4969014;28;20490;-58
2023/08/25 02:35:28;;;;;;;3.80;2.25;;;22.00;60.90;;;;;;4965663;28;20069;-58
2023/08/25 02:37:59;;;;;;;3.97;2.25;;;22.00;60.90;;;;;;4966772;28;20058;-58
2023/08/25 02:40:27;;;;;;;3.72;2.33;;;22.00;61.10;;;;;;4967338;28;20054;-57
2023/08/25 02:42:55;;;;;;;3.88;2.05;;;22.00;61.10;;;;;;4967104;28;20059;-57
2023/08/25 02:45:24;;;;;;;4.05;2.30;;;22.00;61.20;;;;;;4967849;28;20056;-58
2023/08/25 02:47:51;;;;;;;3.40;2.03;;;22.00;61.20;;;;;;4965973;28;20054;-57
2023/08/25 02:50:20;;;;;;;2.38;1.98;;;22.00;62.00;;;;;;4965628;28;20054;-58
2023/08/25 02:52:48;;;;;;;3.97;1.98;;;22.00;61.30;;;;;;4966174;28;20054;-56
2023/08/25 02:55:18;;;;;;;4.85;1.83;;;22.00;61.30;;;;;;4966227;28;20061;-58
2023/08/25 02:57:45;;;;;;;3.85;2.45;;;22.00;61.20;;;;;;4964538;28;20073;-58
2023/08/25 03:00:13;;;;;;;3.60;2.00;;;22.00;61.20;;;;;;4965944;28;20062;-57
2023/08/25 03:02:41;;;;;;;8.20;1.85;;;22.10;61.20;;;;;;4967189;28;20054;-58
2023/08/25 03:05:10;;;;;;;3.20;1.90;;;22.10;61.20;;;;;;4964748;28;20062;-57
2023/08/25 03:07:38;;;;;;;4.53;2.10;;;22.10;61.10;;;;;;4967950;28;20047;-58
2023/08/25 03:10:07;;;;;;;2.53;1.90;;;22.10;61.00;;;;;;4968264;28;20070;-58
2023/08/25 03:12:34;;;;;;;3.35;2.13;;;22.00;60.90;;;;;;4965577;28;20081;-58
2023/08/25 03:15:02;;;;;;;3.50;2.10;;;22.00;60.80;;;;;;4965381;28;20490;-57
2023/08/25 03:17:29;;;;;;;2.28;1.90;;;22.00;60.80;;;;;;4966414;28;20061;-55
2023/08/25 03:19:56;;;;;;;4.32;2.30;;;22.00;60.80;;;;;;4964066;28;20058;-57
2023/08/25 03:22:24;;;;;;;3.25;1.92;;;22.00;60.60;;;;;;4964660;28;20062;-57
2023/08/25 03:24:53;;;;;;;6.35;2.60;;;22.00;60.50;;;;;;4966591;28;20050;-58
2023/08/25 03:27:20;;;;;;;5.97;2.65;;;22.00;60.50;;;;;;4966643;28;20495;-51
2023/08/25 03:29:48;;;;;;;6.88;2.72;;;22.00;60.40;;;;;;4966529;28;20047;-49
2023/08/25 03:32:15;;;;;;;3.92;2.40;;;22.00;60.50;;;;;;4965278;28;20062;-55
2023/08/25 03:34:43;;;;;;;3.28;2.42;;;21.90;61.00;;;;;;4965751;28;20509;-53
2023/08/25 03:37:11;;;;;;;4.72;2.78;;;21.90;60.50;;;;;;4966372;28;20058;-49
2023/08/25 03:39:38;;;;;;;7.20;2.92;;;21.90;60.60;;;;;;4970944;28;20057;-51
2023/08/25 03:42:07;;;;;;;5.70;3.20;;;21.90;60.70;;;;;;4965903;28;20057;-49
2023/08/25 03:44:35;;;;;;;6.93;3.30;;;21.90;60.90;;;;;;4966919;28;20050;-51
2023/08/25 03:47:02;;;;;;;5.43;3.63;;;21.90;60.90;;;;;;4966202;28;20059;-48
2023/08/25 03:49:30;;;;;;;6.25;3.83;;;21.90;61.00;;;;;;4963652;28;20054;-50
2023/08/25 03:51:59;;;;;;;4.03;3.20;;;21.90;61.10;;;;;;4963932;28;20058;-51
2023/08/25 03:54:27;;;;;;;21.10;10.95;;;21.90;61.10;;;;;;4965552;28;20077;-50
2023/08/25 03:56:55;;;;;;;28.42;16.75;;;21.80;61.10;;;;;;4964493;28;20051;-51
2023/08/25 03:59:24;;;;;;;20.23;11.55;;;21.80;61.20;;;;;;4966442;28;20085;-50
2023/08/25 04:01:51;;;;;;;17.52;8.00;;;21.80;61.30;;;;;;4965797;28;20066;-55
2023/08/25 04:04:18;;;;;;;13.57;6.05;;;21.80;61.40;;;;;;4965475;28;20055;-53
2023/08/25 04:06:45;;;;;;;11.88;4.90;;;21.80;61.40;;;;;;4964870;28;20402;-53
2023/08/25 04:09:14;;;;;;;5.72;4.40;;;21.80;61.50;;;;;;4964122;28;20062;-50
2023/08/25 04:11:41;;;;;;;8.45;3.85;;;21.80;61.50;;;;;;4965507;28;20077;-48
2023/08/25 04:14:08;;;;;;;5.18;3.40;;;21.80;61.50;;;;;;4964363;28;20503;-50
2023/08/25 04:16:37;;;;;;;6.90;4.25;;;21.80;61.50;;;;;;4965208;28;20051;-56
2023/08/25 04:19:04;;;;;;;5.15;3.58;;;21.80;61.60;;;;;;4966365;28;20054;-52
2023/08/25 04:21:31;;;;;;;4.68;4.13;;;21.80;61.60;;;;;;4965156;28;20055;-51
2023/08/25 04:23:58;;;;;;;6.07;3.72;;;21.80;61.60;;;;;;4967399;28;20055;-48
2023/08/25 04:26:26;;;;;;;5.60;3.60;;;21.80;61.70;;;;;;4964643;28;20054;-59
2023/08/25 04:28:53;;;;;;;6.80;4.53;;;21.80;61.80;;;;;;4965188;28;20529;-58
2023/08/25 04:31:20;;;;;;;5.47;3.70;;;21.80;61.80;;;;;;4963589;28;20051;-54
2023/08/25 04:33:49;;;;;;;5.85;4.50;;;21.80;61.80;;;;;;4965631;28;20632;-55
2023/08/25 04:36:16;;;;;;;4.95;3.97;;;21.80;61.90;;;;;;4962491;28;20050;-56
2023/08/25 04:38:44;;;;;;;6.97;4.28;;;21.80;61.80;;;;;;4965164;28;20085;-61
2023/08/25 04:41:11;;;;;;;7.13;3.95;;;21.80;61.90;;;;;;4965039;28;20070;-60
2023/08/25 04:43:38;;;;;;;5.47;4.05;;;21.80;61.90;;;;;;4966302;28;20415;-60
2023/08/25 04:46:07;;;;;;;8.95;5.07;;;21.80;61.90;;;;;;4965338;28;20050;-60
2023/08/25 04:48:34;;;;;;;8.02;4.70;;;21.80;62.20;;;;;;4968289;28;20050;-60
2023/08/25 04:51:03;;;;;;;6.53;4.32;;;21.80;62.00;;;;;;4964514;28;20360;-59
2023/08/25 04:53:30;;;;;;;5.57;4.38;;;21.80;62.10;;;;;;4964147;28;20185;-60
2023/08/25 04:55:58;;;;;;;7.25;5.53;;;21.80;62.10;;;;;;4964635;28;20051;-59
2023/08/25 04:58:25;;;;;;;6.53;5.20;;;21.80;62.20;;;;;;4963396;28;20050;-60
2023/08/25 05:00:54;;;;;;;6.72;5.60;;;21.80;62.30;;;;;;4963943;28;20439;-61
2023/08/25 05:03:21;;;;;;;7.03;5.07;;;21.80;62.50;;;;;;4963675;28;20050;-60
2023/08/25 05:05:48;;;;;;;9.02;6.07;;;21.80;62.60;;;;;;4963152;28;20057;-61
2023/08/25 05:08:17;;;;;;;8.55;6.72;;;21.80;62.60;;;;;;4965260;28;20051;-58
2023/08/25 05:10:44;;;;;;;8.65;6.28;;;21.80;62.90;;;;;;4964340;28;20054;-59
2023/08/25 05:13:11;;;;;;;9.07;6.13;;;21.80;62.90;;;;;;4965116;28;20583;-60
2023/08/25 05:15:39;;;;;;;8.63;7.47;;;21.80;63.00;;;;;;4963976;28;20054;-60
2023/08/25 05:18:06;;;;;;;7.07;5.97;;;21.80;63.10;;;;;;4964326;28;20479;-60
2023/08/25 05:20:33;;;;;;;8.40;6.15;;;21.90;63.20;;;;;;4962497;28;20494;-60
2023/08/25 05:23:01;;;;;;;6.00;5.00;;;21.90;63.20;;;;;;4965482;28;20054;-60
2023/08/25 05:25:31;;;;;;;10.00;5.18;;;21.90;63.20;;;;;;4964553;28;20134;-61
2023/08/25 05:27:58;;;;;;;6.57;4.88;;;21.90;63.20;;;;;;4964437;28;20058;-57
2023/08/25 05:30:25;;;;;;;7.93;5.40;;;21.90;63.20;;;;;;4964665;28;20057;-61
2023/08/25 05:32:52;;;;;;;8.10;5.43;;;21.90;63.20;;;;;;4964604;28;20047;-60
2023/08/25 05:35:19;;;;;;;8.52;5.45;;;21.90;63.20;;;;;;4963076;28;21406;-61
2023/08/25 05:37:47;;;;;;;7.18;5.35;;;21.90;63.40;;;;;;4964818;28;20058;-61
2023/08/25 05:40:14;;;;;;;9.70;5.93;;;21.90;63.40;;;;;;4963678;28;20058;-60
2023/08/25 05:42:43;;;;;;;7.13;5.25;;;21.90;63.60;;;;;;4968218;28;20062;-60
2023/08/25 05:45:10;;;;;;;8.45;5.05;;;22.00;63.70;;;;;;4967740;28;20066;-61
2023/08/25 05:47:37;;;;;;;5.10;4.35;;;22.00;63.80;;;;;;4967713;28;20491;-53
2023/08/25 05:50:05;;;;;;;6.15;4.78;;;22.00;63.80;;;;;;4967133;28;20066;-49
2023/08/25 05:52:32;;;;;;;9.55;5.30;;;22.00;63.80;;;;;;4969056;28;20495;-51
2023/08/25 05:55:00;;;;;;;11.95;4.82;;;22.10;63.90;;;;;;4968563;28;20061;-55
2023/08/25 05:57:27;;;;;;;7.65;4.70;;;22.10;63.80;;;;;;4968559;28;20402;-57
2023/08/25 05:59:56;;;;;;;9.77;4.45;;;22.10;63.80;;;;;;4967315;28;20062;-52
2023/08/25 06:02:23;;;;;;;5.50;4.43;;;22.20;64.60;;;;;;4967161;28;20062;-54
2023/08/25 06:04:51;;;;;;;8.93;4.63;;;22.20;63.90;;;;;;4966338;28;20097;-51
2023/08/25 06:07:18;;;;;;;5.70;4.82;;;22.20;63.90;;;;;;4967998;28;20062;-52
2023/08/25 06:09:45;;;;;;;6.15;4.25;;;22.20;64.00;;;;;;4968725;28;20054;-50
2023/08/25 06:12:12;;;;;;;7.40;4.35;;;22.20;64.00;;;;;;4967520;28;20065;-54
2023/08/25 06:14:40;;;;;;;5.25;4.25;;;22.20;64.00;;;;;;4966390;28;20066;-52
2023/08/25 06:17:08;;;;;;;6.15;4.55;;;22.20;64.00;;;;;;4966640;28;20059;-54
2023/08/25 06:19:37;;;;;;;6.60;4.78;;;22.30;64.10;;;;;;4965855;28;20494;-59
2023/08/25 06:22:05;;;;;;;10.98;4.75;;;22.30;64.10;;;;;;4965328;28;20054;-52
2023/08/25 06:24:32;;;;;;;6.85;4.45;;;22.30;64.10;;;;;;4966692;28;20051;-52
2023/08/25 06:27:00;;;;;;;5.32;3.97;;;22.30;64.20;;;;;;4967875;28;20058;-53
2023/08/25 06:29:27;;;;;;;6.13;4.50;;;22.30;64.20;;;;;;4966652;28;20586;-59
2023/08/25 06:32:01;;;;;;;5.75;3.83;;;22.30;64.20;;;;;;4966256;28;20526;-53
2023/08/25 06:34:36;;;;;;;4.47;3.65;;;22.30;64.30;;;;;;4986642;28;20050;-54
2023/08/25 06:40:29;;;;;;;4.95;3.33;;;22.40;64.60;;;;;;4993057;28;20049;-52
2023/08/25 06:46:25;;;;;;;6.68;3.70;;;22.40;64.80;;;;;;4982631;28;20517;-50
2023/08/25 06:52:18;;;;;;;4.90;3.65;;;22.50;64.50;;;;;;4982396;28;20038;-54
2023/08/25 06:58:12;;;;;;;7.30;4.40;;;22.50;64.50;;;;;;4981153;28;20426;-59
2023/08/25 07:00:41;;;;;;;6.20;3.85;;;22.60;64.40;;;;;;4965369;28;20054;-53
2023/08/25 07:03:08;;;;;;;4.32;3.53;;;22.60;64.50;;;;;;4967260;28;20054;-58
2023/08/25 07:05:38;;;;;;;4.13;3.03;;;22.60;64.60;;;;;;4965948;28;20051;-56
2023/08/25 07:08:07;;;;;;;5.90;3.70;;;22.60;64.60;;;;;;4966112;28;20054;-51
2023/08/25 07:10:35;;;;;;;6.57;3.67;;;22.60;64.70;;;;;;4966824;28;20058;-51
2023/08/25 07:13:02;;;;;;;5.80;3.92;;;22.60;64.60;;;;;;4966318;28;20406;-51
2023/08/25 07:15:30;;;;;;;9.85;3.75;;;22.70;64.70;;;;;;4967099;28;20062;-57
2023/08/25 07:17:57;;;;;;;6.60;3.90;;;22.70;64.70;;;;;;4965381;28;20494;-58
2023/08/25 07:20:24;;;;;;;5.22;3.88;;;22.70;64.70;;;;;;4964905;28;20055;-53
2023/08/25 07:22:51;;;;;;;8.13;3.92;;;22.70;64.60;;;;;;4965666;28;20051;-55
2023/08/25 07:25:20;;;;;;;4.07;3.28;;;22.80;64.70;;;;;;4966512;28;20054;-51
2023/08/25 07:27:47;;;;;;;6.85;3.70;;;22.80;64.60;;;;;;4966095;28;20070;-51
2023/08/25 07:30:14;;;;;;;4.35;3.47;;;22.80;64.50;;;;;;4964290;28;20065;-49
2023/08/25 07:32:42;;;;;;;7.50;4.25;;;22.80;64.60;;;;;;4965950;28;20069;-49
2023/08/25 07:35:09;;;;;;;5.40;4.13;;;22.90;64.70;;;;;;4965214;28;20062;-50
2023/08/25 07:37:41;;;;;;;6.57;4.20;;;22.90;64.70;;;;;;4967126;28;20062;-51
2023/08/25 07:40:10;;;;;;;6.38;4.53;;;22.90;64.90;;;;;;4965306;28;20411;-53
2023/08/25 07:42:39;;;;;;;5.43;3.70;;;22.90;65.10;;;;;;4966742;28;20066;-55
2023/08/25 07:45:08;;;;;;;4.25;3.75;;;23.00;65.30;;;;;;4965894;28;20054;-52
2023/08/25 07:47:36;;;;;;;6.38;4.53;;;23.00;65.50;;;;;;4964988;28;20066;-58
2023/08/25 07:50:03;;;;;;;6.13;4.07;;;23.00;65.80;;;;;;4965716;28;20063;-59
2023/08/25 07:52:31;;;;;;;5.90;3.53;;;23.00;65.90;;;;;;4966574;28;20438;-51
2023/08/25 07:54:58;;;;;;;7.22;4.22;;;23.10;65.90;;;;;;4965557;28;20055;-52
2023/08/25 07:57:26;;;;;;;7.13;4.60;;;23.20;65.90;;;;;;4965431;28;20138;-51
2023/08/25 07:59:55;;;;;;;6.40;4.18;;;23.20;65.80;;;;;;4965546;28;20058;-59
2023/08/25 08:02:22;;;;;;;8.77;4.82;;;23.20;65.50;;;;;;4965687;28;20055;-58
2023/08/25 08:04:51;;;;;;;5.32;4.20;;;23.30;65.50;;;;;;4961986;28;20591;-51
2023/08/25 08:07:18;;;;;;;8.30;4.85;;;23.30;65.40;;;;;;4965852;28;20057;-59
2023/08/25 08:09:45;;;;;;;6.38;4.28;;;23.40;65.10;;;;;;4965096;28;20046;-61
2023/08/25 08:12:13;;;;;;;5.47;4.28;;;23.40;65.10;;;;;;4964495;28;20062;-61
2023/08/25 08:14:40;;;;;;;8.73;4.35;;;23.40;65.10;;;;;;4965386;28;20062;-61
2023/08/25 08:17:08;;;;;;;6.32;4.53;;;23.50;65.00;;;;;;4964756;28;20059;-61
2023/08/25 08:19:36;;;;;;;6.20;4.65;;;23.50;64.90;;;;;;4965885;28;20054;-60
2023/08/25 08:22:04;;;;;;;6.13;4.82;;;23.60;64.80;;;;;;4965644;28;20498;-60
2023/08/25 08:24:31;;;;;;;6.13;4.28;;;23.50;64.30;;;;;;4964093;28;20055;-60
2023/08/25 08:26:59;;;;;;;6.72;4.22;;;23.60;64.20;;;;;;4966137;28;20058;-61
2023/08/25 08:29:27;;;;;;;6.15;4.20;;;23.60;64.10;;;;;;4965776;28;20054;-61
2023/08/25 08:31:55;;;;;;;7.05;3.92;;;23.60;64.10;;;;;;4965521;28;20406;-62
2023/08/25 08:34:23;;;;;;;6.63;4.38;;;23.60;64.10;;;;;;4963471;28;20061;-61
2023/08/25 08:36:51;;;;;;;5.28;3.75;;;23.60;64.20;;;;;;4964369;28;20062;-61
2023/08/25 08:39:18;;;;;;;5.18;3.53;;;23.60;64.10;;;;;;4964597;28;20047;-61
2023/08/25 08:41:47;;;;;;;4.97;4.18;;;23.60;64.10;;;;;;4965242;28;20058;-61
2023/08/25 08:44:19;;;;;;;5.20;4.47;;;23.60;64.20;;;;;;4964916;28;20123;-61
2023/08/25 08:46:48;;;;;;;5.20;4.03;;;23.60;64.20;;;;;;4965122;28;20062;-60
2023/08/25 08:49:16;;;;;;;7.53;4.10;;;23.60;64.10;;;;;;4965563;28;20055;-62
2023/08/25 08:51:46;;;;;;;5.90;4.25;;;23.60;64.00;;;;;;4963093;28;20489;-60
2023/08/25 08:54:14;;;;;;;5.22;4.00;;;23.60;64.00;;;;;;4962724;28;20050;-59
2023/08/25 08:56:42;;;;;;;5.07;3.88;;;23.60;64.00;;;;;;4964104;28;20054;-58
2023/08/25 08:59:09;;;;;;;5.68;4.00;;;23.60;64.00;;;;;;4965031;28;20047;-59
2023/08/25 09:01:38;;;;;;;6.28;3.90;;;23.60;64.00;;;;;;4964705;28;20050;-61
2023/08/25 09:04:09;;;;;;;5.65;4.15;;;23.60;63.90;;;;;;4963907;28;20062;-60
2023/08/25 09:06:39;;;;;;;7.03;3.85;;;23.70;64.00;;;;;;4962866;28;20056;-61
2023/08/25 09:09:09;;;;;;;5.13;3.88;;;23.70;64.00;;;;;;4963475;28;20051;-60
2023/08/25 09:11:37;;;;;;;5.47;3.97;;;23.70;64.00;;;;;;4966191;28;20059;-59
2023/08/25 09:14:05;;;;;;;14.43;4.47;;;23.70;63.90;;;;;;4964967;28;20050;-61
2023/08/25 09:16:33;;;;;;;8.52;4.47;;;23.70;63.80;;;;;;4963959;28;20055;-60
2023/08/25 09:19:02;;;;;;;8.65;4.28;;;23.70;63.80;;;;;;4963403;28;20055;-54
2023/08/25 09:21:30;;;;;;;4.75;3.88;;;23.70;63.90;;;;;;4964403;28;20051;-52
2023/08/25 09:23:59;;;;;;;5.40;4.05;;;23.70;63.80;;;;;;4965259;28;20062;-53
2023/08/25 09:26:30;;;;;;;5.63;3.95;;;23.70;63.80;;;;;;4963686;28;20066;-58
2023/08/25 09:28:59;;;;;;;8.18;4.40;;;23.70;63.80;;;;;;4963567;28;20502;-50
2023/08/25 09:31:28;;;;;;;9.40;3.95;;;23.70;63.90;;;;;;4963046;28;20403;-56
2023/08/25 09:34:01;;;;;;;6.95;4.40;;;23.70;64.10;;;;;;4963195;28;20516;-53
2023/08/25 09:36:30;;;;;;;9.47;4.87;;;23.70;64.20;;;;;;4963130;28;20483;-59
2023/08/25 09:38:58;;;;;;;6.78;3.55;;;23.70;64.20;;;;;;4963916;28;20062;-52
2023/08/25 09:41:26;;;;;;;7.93;4.57;;;23.70;64.10;;;;;;4963634;28;20063;-51
2023/08/25 09:43:58;;;;;;;7.13;4.20;;;23.70;64.10;;;;;;4964840;28;20448;-51
2023/08/25 09:46:29;;;;;;;5.38;4.15;;;23.70;64.10;;;;;;4963577;28;20495;-52
2023/08/25 09:49:06;;;;;;;6.45;4.05;;;23.70;64.00;;;;;;4962188;28;20059;-51
2023/08/25 09:51:37;;;;;;;8.77;4.30;;;23.70;63.90;;;;;;4962996;28;20061;-54
2023/08/25 09:54:08;;;;;;;8.27;4.55;;;23.70;63.80;;;;;;4963794;28;20050;-55
2023/08/25 09:56:36;;;;;;;5.70;4.20;;;23.70;64.00;;;;;;4964135;28;20062;-50
2023/08/25 09:59:06;;;;;;;8.27;4.70;;;23.70;64.00;;;;;;4963565;28;20047;-51
2023/08/25 10:01:34;;;;;;;5.50;4.30;;;23.70;64.40;;;;;;4964344;28;20513;-59
2023/08/25 10:04:02;;;;;;;8.23;4.65;;;23.80;64.70;;;;;;4964612;28;20052;-50
2023/08/25 10:06:31;;;;;;;7.45;4.32;;;23.80;64.80;;;;;;4962898;28;20519;-55
2023/08/25 10:08:59;;;;;;;8.23;4.50;;;23.80;64.90;;;;;;4964360;28;20055;-57
2023/08/25 10:11:29;;;;;;;9.40;5.00;;;23.80;64.80;;;;;;4964023;28;20059;-60
2023/08/25 10:13:57;;;;;;;7.10;4.38;;;23.80;64.70;;;;;;4966090;28;20062;-54
2023/08/25 10:16:27;;;;;;;6.28;4.32;;;23.90;64.80;;;;;;4963562;28;20066;-51
2023/08/25 10:18:57;;;;;;;5.90;5.07;;;23.90;64.70;;;;;;4964767;28;20508;-52
2023/08/25 10:21:26;;;;;;;9.85;5.30;;;23.90;64.70;;;;;;4962541;28;20438;-50
2023/08/25 10:23:54;;;;;;;8.98;4.70;;;23.90;64.70;;;;;;4964690;28;20069;-57
2023/08/25 10:26:22;;;;;;;6.80;4.93;;;24.00;65.10;;;;;;4963476;28;20058;-52
2023/08/25 10:29:07;;;;;;;6.53;4.68;;;24.00;65.20;;;;;;4963806;28;20055;-52
2023/08/25 10:31:46;;;;;;;7.65;4.55;;;24.00;65.20;;;;;;4964778;28;20055;-55
2023/08/25 10:34:33;;;;;;;7.05;4.18;;;24.10;65.00;;;;;;4967035;28;20057;-58
2023/08/25 10:37:06;;;;;;;5.57;4.85;;;24.10;64.80;;;;;;4967800;28;20058;-53
2023/08/25 10:39:48;;;;;;;8.07;4.40;;;24.10;65.20;;;;;;4971348;28;20061;-58
2023/08/25 10:42:23;;;;;;;6.50;4.70;;;24.20;65.50;;;;;;4969795;28;20058;-56
2023/08/25 10:44:56;;;;;;;6.85;5.00;;;24.20;65.50;;;;;;4969305;28;20046;-56
2023/08/25 10:47:32;;;;;;;6.93;4.28;;;24.30;65.90;;;;;;4968792;28;20058;-58
2023/08/25 10:50:06;;;;;;;6.35;4.70;;;24.30;65.90;;;;;;4970260;28;20063;-58
2023/08/25 10:52:35;;;;;;;5.45;4.55;;;24.40;65.70;;;;;;4970909;28;20054;-55
2023/08/25 10:55:27;;;;;;;8.30;5.53;;;24.40;65.50;;;;;;4971865;28;20490;-54
2023/08/25 10:58:03;;;;;;;7.82;4.30;;;24.50;65.50;;;;;;4974104;28;20061;-52
2023/08/25 11:00:34;;;;;;;9.55;4.63;;;24.50;65.50;;;;;;4967877;28;20487;-53
2023/08/25 11:03:04;;;;;;;5.07;4.43;;;24.50;65.30;;;;;;4967700;28;20498;-56
2023/08/25 11:05:44;;;;;;;7.70;4.50;;;24.60;65.30;;;;;;4965467;28;20050;-53
2023/08/25 11:08:28;;;;;;;5.60;4.25;;;24.60;65.30;;;;;;4966397;28;20047;-54
2023/08/25 11:11:13;;;;;;;7.68;4.57;;;24.60;65.10;;;;;;4967033;28;20054;-58
2023/08/25 11:13:41;;;;;;;5.35;4.40;;;24.60;65.10;;;;;;4966069;28;20055;-54
2023/08/25 11:16:10;;;;;;;8.52;5.63;;;24.60;64.90;;;;;;4964797;28;20058;-59
2023/08/25 11:18:41;;;;;;;7.53;5.18;;;24.60;65.30;;;;;;4965065;28;20430;-54
2023/08/25 11:21:09;;;;;;;8.30;5.60;;;24.60;65.70;;;;;;4965297;28;20046;-59
2023/08/25 11:23:38;;;;;;;7.85;5.47;;;24.60;65.70;;;;;;4966430;28;20047;-57
2023/08/25 11:26:06;;;;;;;7.70;5.22;;;24.60;66.00;;;;;;4965041;28;20069;-56
2023/08/25 11:28:33;;;;;;;6.18;4.82;;;24.60;66.00;;;;;;4966216;28;20047;-60
2023/08/25 11:31:01;;;;;;;6.70;5.05;;;24.60;66.00;;;;;;4965730;28;20058;-53
2023/08/25 11:33:31;;;;;;;8.93;5.03;;;24.60;66.10;;;;;;4966507;28;20058;-56
2023/08/25 11:36:00;;;;;;;8.50;6.03;;;24.60;66.20;;;;;;4963458;28;20051;-55
2023/08/25 11:38:29;;;;;;;7.78;5.75;;;24.60;66.60;;;;;;4967066;28;20069;-55
2023/08/25 11:40:57;;;;;;;8.52;5.78;;;24.50;66.60;;;;;;4965918;28;20058;-48
2023/08/25 11:43:29;;;;;;;11.32;6.13;;;24.50;66.70;;;;;;4964369;28;20055;-51
2023/08/25 11:45:56;;;;;;;11.48;6.72;;;24.50;67.10;;;;;;4966465;28;20051;-53
2023/08/25 11:48:24;;;;;;;11.50;6.53;;;24.40;67.40;;;;;;4964959;28;20061;-49
2023/08/25 11:50:51;;;;;;;9.10;6.10;;;24.40;67.80;;;;;;4964845;28;20043;-59
2023/08/25 11:53:20;;;;;;;6.00;4.97;;;24.30;68.10;;;;;;4966229;28;20046;-48
2023/08/25 11:56:01;;;;;;;5.47;4.50;;;24.20;68.90;;;;;;4964777;28;20054;-57
2023/08/25 11:58:36;;;;;;;7.15;4.82;;;24.20;68.60;;;;;;4966872;28;20078;-50
2023/08/25 12:01:07;;;;;;;6.35;4.60;;;24.20;68.70;;;;;;4965977;28;20043;-57
2023/08/25 12:03:34;;;;;;;11.77;5.22;;;24.20;68.70;;;;;;4965603;28;20070;-50
2023/08/25 12:06:05;;;;;;;7.30;5.03;;;24.20;68.60;;;;;;4964214;28;20059;-49
2023/08/25 12:08:34;;;;;;;6.60;4.78;;;24.20;68.70;;;;;;4967948;28;20054;-50
2023/08/25 12:11:01;;;;;;;7.05;5.57;;;24.20;68.80;;;;;;4967028;28;20474;-53
2023/08/25 12:13:30;;;;;;;6.75;5.13;;;24.20;68.70;;;;;;4966737;28;20054;-49
2023/08/25 12:15:58;;;;;;;8.93;6.47;;;24.20;68.70;;;;;;4965328;28;20055;-48
2023/08/25 12:18:34;;;;;;;9.15;4.88;;;24.20;68.70;;;;;;4965090;28;20054;-52
2023/08/25 12:21:03;;;;;;;5.85;5.05;;;24.20;68.60;;;;;;4964355;28;20054;-50
2023/08/25 12:23:36;;;;;;;7.68;5.60;;;24.30;68.50;;;;;;4966015;28;20051;-52
2023/08/25 12:26:04;;;;;;;10.75;5.90;;;24.20;68.60;;;;;;4965393;28;20055;-58
2023/08/25 12:28:32;;;;;;;8.15;5.80;;;24.30;68.60;;;;;;4965977;28;20050;-49
2023/08/25 12:31:00;;;;;;;6.68;5.07;;;24.30;68.40;;;;;;4964747;28;20058;-52
2023/08/25 12:33:27;;;;;;;6.35;5.15;;;24.30;68.40;;;;;;4965689;28;20055;-51
2023/08/25 12:35:55;;;;;;;11.07;6.65;;;24.30;68.40;;;;;;4963885;28;20066;-53
2023/08/25 12:38:22;;;;;;;10.98;5.75;;;24.30;68.60;;;;;;4966319;28;20510;-48
2023/08/25 12:40:50;;;;;;;9.57;5.32;;;24.30;68.60;;;;;;4964953;28;20050;-49
2023/08/25 12:43:18;;;;;;;6.03;5.13;;;24.30;68.60;;;;;;4965311;28;20065;-49
2023/08/25 12:45:45;;;;;;;6.05;4.70;;;24.30;68.70;;;;;;4965381;28;20057;-50
2023/08/25 12:48:12;;;;;;;7.13;4.95;;;24.30;68.80;;;;;;4965344;28;20065;-49
2023/08/25 12:50:39;;;;;;;7.78;5.25;;;24.30;68.90;;;;;;4962115;28;20569;-52
2023/08/25 12:53:07;;;;;;;7.93;5.40;;;24.30;68.80;;;;;;4965148;28;20062;-55
2023/08/25 12:55:34;;;;;;;6.28;5.28;;;24.30;68.80;;;;;;4965563;28;20418;-51
2023/08/25 12:58:03;;;;;;;7.68;5.25;;;24.40;68.80;;;;;;4965453;28;20065;-52
2023/08/25 13:00:30;;;;;;;8.52;5.15;;;24.40;68.80;;;;;;4964144;28;20074;-53
2023/08/25 13:02:58;;;;;;;9.13;5.47;;;24.40;68.70;;;;;;4965092;28;20483;-52
2023/08/25 13:05:25;;;;;;;6.55;5.03;;;24.40;68.70;;;;;;4963292;28;20070;-54
2023/08/25 13:07:53;;;;;;;11.70;5.45;;;24.40;68.60;;;;;;4964594;28;20503;-50